Etusivu
METAR-TAF:

METAR-TAF

Lentoasemat :

Edmonton Namao, Alberta, Kanada

Leveyspiiri: 53-40N, Pituuspiiri: 113-28W, korkeus merenpinnasta: 688 m

Tämänhetkinen sää

Tämä raportti tehtiin 1 tunti ja 46 minuuttia sitten, kello 13.00 UTC
Tuuli 8 kn lännestä
Lämpötila -1°C
Kosteus 46%
Ilmanpaine 1023 hPa
Näkyvyys: 14.5 km
selkeää

METAR: CYED 251300Z AUTO 27008KT 9SM CLR M01/M11 A3020 RMK SLP255

Aika: 08:46 (14:46 UTC)

Sääennuste

Tämä raportti tehtiin 3 tuntia ja 16 minuuttia sitten, kello 11.30 UTC
Ennuste voimassa 25. päivästä klo 12 UTC - 25. päivään klo 24 UTC
Tuuli 8 kn lännestä
Näkyvyys: 10 km
Muutamia pilviä 7000 ft:n korkeudessa
Tulossa
25. päivästä klo 14 UTC - 25. päivään klo 16 UTC
Tuuli 10 kn lännestä puuskistuen 20 kn:hen
Hajanaisia pilviä 6000 ft:n korkeudessa

TAF: CYED 251130Z 2512/2524 27008KT P6SM FEW070 BECMG 2514/2516 27010G20KT SCT060 RMK FCST BASED ON AUTO OBS 251200-252200Z. NXT FCST BY 251800Z

Säähavainnot ja -ennusteet yli 4000 lentoasemalta (METAR- ja TAF-raportit).

Käytössä olevat sääasemat on merkitty karttaan keltaisilla ja punaisilla pisteillä.

Aseta hiiri pisteen päälle nähdäksesi sääaseman nimen.

Klikkaa sitten nähdäksesi säähavainnot ja -ennusteet.

Kartan vaihtaminen: klikkaa mustalla rastilla varustettuja vihreitä pisteitä, niin voit zoomata sisään; viivalla varustettua vihreää pistettä, niin voit zoomata ulos tai vihreitä nuolia, niin pääset viereisille kartoille.


METAR-TAF: